Česky Dansk Deutsch English Español Suomi Français Magyar Italiano Nederlands norsk Polski Português svenska Türkçe

 

Het Weer

Trieste (Italië)

16:55, 13 augustus 2016 (GMT)

NWNNE
WE
SWSSE
Home            
Trieste Portoroz Portoroz / Secovlje Ronchi Dei Legionari Pula Aerodrome Udine / Campoformido Udine / Rivolto Rijeka / Omisalj Ljubljana / Brnik Tarvisio Aviano Usaf Aviano Venezia / Tessera Klagenfurt-Flughafen Treviso / S. Angelo Treviso / Istrana Losinj Island Dova Area Control Center Passo Rolle Dobbiaco Vicenza Punta Marina Maribor / Slivnica

Om een weerknop op uw website of weblog te plaatsen, copieer onderstaande code en plak die in uw pagina. In het eerste vakje staat HTML-code, in het tweede vakje UBB-code.


Add to Google

Details

Visibility:Suurempi kuin 10000 m, 10 km, 32800 ft, 6.2 miles
Clouds:CAVOC
Lämpötila:25°C, 77°F
Gefühlte Temperatur:26°C, 79°F
Kastepisteen:18°C, 64°F
Ilmanpaine:1023 hPa, 767.3 mmHg, 30.21 inHg, 1.010 atm
Suhteellinen kosteus:65.2 %
METAR:LIVT 131655Z 00000KT CAVOK 25/18 Q1023 RMK SKC QUK 1 QUL 0 VIS MAR 20 KM VIS MIN 9999

Snelkoppelingen

Actuele weersinformatie van de hele wereld. Voeg locaties toe met het plus (+) symbool. Deze snelkoppelingen kunnen worden toegevoegd aan Google.

Lid van de Technetium groep

website free tracking
StatCounter NetStat W3C Validator

18-08-2022 03:43:45
astro.technetium.be money.technetium.be phote.technetium.be tafeltennistafel.technetium.be www.ligfiets.net